sensor_id;sensor_type;location;lat;lon;timestamp;temperature;humidity
64226;DHT22;50545;56.064;26.178;2022-10-16T00:01:27;9.70;99.90
64226;DHT22;50545;56.064;26.178;2022-10-16T00:03:55;9.70;99.90
64226;DHT22;50545;56.064;26.178;2022-10-16T00:06:24;9.80;99.90
64226;DHT22;50545;56.064;26.178;2022-10-16T00:08:51;9.80;99.90
64226;DHT22;50545;56.064;26.178;2022-10-16T00:11:24;9.80;99.90
64226;DHT22;50545;56.064;26.178;2022-10-16T00:13:56;9.80;99.90
64226;DHT22;50545;56.064;26.178;2022-10-16T00:16:24;9.80;99.90
64226;DHT22;50545;56.064;26.178;2022-10-16T00:18:51;9.80;99.90
64226;DHT22;50545;56.064;26.178;2022-10-16T00:21:24;9.80;99.90
64226;DHT22;50545;56.064;26.178;2022-10-16T00:24:03;9.80;99.90
64226;DHT22;50545;56.064;26.178;2022-10-16T00:26:32;9.80;99.90
64226;DHT22;50545;56.064;26.178;2022-10-16T00:29:01;9.80;99.90
64226;DHT22;50545;56.064;26.178;2022-10-16T00:31:29;9.80;99.90
64226;DHT22;50545;56.064;26.178;2022-10-16T00:33:56;9.90;99.90
64226;DHT22;50545;56.064;26.178;2022-10-16T00:36:25;9.90;99.90
64226;DHT22;50545;56.064;26.178;2022-10-16T00:38:54;9.90;99.90
64226;DHT22;50545;56.064;26.178;2022-10-16T00:41:23;9.90;99.90
64226;DHT22;50545;56.064;26.178;2022-10-16T00:43:59;9.90;99.90
64226;DHT22;50545;56.064;26.178;2022-10-16T00:49:08;9.90;99.90
64226;DHT22;50545;56.064;26.178;2022-10-16T00:51:48;10.00;99.90
64226;DHT22;50545;56.064;26.178;2022-10-16T00:54:28;10.00;99.90
64226;DHT22;50545;56.064;26.178;2022-10-16T00:56:59;10.00;99.90
64226;DHT22;50545;56.064;26.178;2022-10-16T00:59:30;10.00;99.90
64226;DHT22;50545;56.064;26.178;2022-10-16T01:01:58;10.00;99.90
64226;DHT22;50545;56.064;26.178;2022-10-16T01:04:26;10.00;99.90
64226;DHT22;50545;56.064;26.178;2022-10-16T01:12:51;10.10;99.90
64226;DHT22;50545;56.064;26.178;2022-10-16T01:15:56;10.10;99.90
64226;DHT22;50545;56.064;26.178;2022-10-16T01:18:34;10.10;99.90
64226;DHT22;50545;56.064;26.178;2022-10-16T01:21:13;10.10;99.90
64226;DHT22;50545;56.064;26.178;2022-10-16T01:29:25;10.00;99.90
64226;DHT22;50545;56.064;26.178;2022-10-16T01:31:57;10.00;99.90
64226;DHT22;50545;56.064;26.178;2022-10-16T01:34:35;10.00;99.90
64226;DHT22;50545;56.064;26.178;2022-10-16T01:37:12;9.90;99.90
64226;DHT22;50545;56.064;26.178;2022-10-16T01:39:42;9.90;99.90
64226;DHT22;50545;56.064;26.178;2022-10-16T01:42:24;9.90;99.90
64226;DHT22;50545;56.064;26.178;2022-10-16T01:44:53;9.90;99.90
64226;DHT22;50545;56.064;26.178;2022-10-16T01:47:23;9.90;99.90
64226;DHT22;50545;56.064;26.178;2022-10-16T01:49:52;9.90;99.90
64226;DHT22;50545;56.064;26.178;2022-10-16T01:52:23;9.80;99.90
64226;DHT22;50545;56.064;26.178;2022-10-16T01:54:55;9.80;99.90
64226;DHT22;50545;56.064;26.178;2022-10-16T01:57:24;9.80;99.90
64226;DHT22;50545;56.064;26.178;2022-10-16T01:59:56;9.80;99.90
64226;DHT22;50545;56.064;26.178;2022-10-16T02:02:27;9.80;99.90
64226;DHT22;50545;56.064;26.178;2022-10-16T02:05:05;9.80;99.90
64226;DHT22;50545;56.064;26.178;2022-10-16T02:07:35;9.70;99.90
64226;DHT22;50545;56.064;26.178;2022-10-16T02:10:02;9.70;99.90
64226;DHT22;50545;56.064;26.178;2022-10-16T02:12:31;9.70;99.90
64226;DHT22;50545;56.064;26.178;2022-10-16T02:15:00;9.70;99.90
64226;DHT22;50545;56.064;26.178;2022-10-16T02:17:28;9.70;99.90
64226;DHT22;50545;56.064;26.178;2022-10-16T02:19:56;9.60;99.90
64226;DHT22;50545;56.064;26.178;2022-10-16T02:22:30;9.60;99.90
64226;DHT22;50545;56.064;26.178;2022-10-16T02:25:06;9.60;99.90
64226;DHT22;50545;56.064;26.178;2022-10-16T02:28:21;9.60;99.90
64226;DHT22;50545;56.064;26.178;2022-10-16T02:30:56;9.60;99.90
64226;DHT22;50545;56.064;26.178;2022-10-16T02:33:26;9.50;99.90
64226;DHT22;50545;56.064;26.178;2022-10-16T02:35:55;9.50;99.90
64226;DHT22;50545;56.064;26.178;2022-10-16T02:38:23;9.50;99.90
64226;DHT22;50545;56.064;26.178;2022-10-16T02:40:51;9.50;99.90
64226;DHT22;50545;56.064;26.178;2022-10-16T02:43:19;9.50;99.90
64226;DHT22;50545;56.064;26.178;2022-10-16T02:45:46;9.50;99.90
64226;DHT22;50545;56.064;26.178;2022-10-16T02:48:14;9.60;99.90
64226;DHT22;50545;56.064;26.178;2022-10-16T02:50:41;9.60;99.90
64226;DHT22;50545;56.064;26.178;2022-10-16T02:53:09;9.60;99.90
64226;DHT22;50545;56.064;26.178;2022-10-16T02:55:36;9.60;99.90
64226;DHT22;50545;56.064;26.178;2022-10-16T02:58:03;9.70;99.90
64226;DHT22;50545;56.064;26.178;2022-10-16T03:00:30;9.70;99.90
64226;DHT22;50545;56.064;26.178;2022-10-16T03:02:57;9.70;99.90
64226;DHT22;50545;56.064;26.178;2022-10-16T03:05:25;9.60;99.90
64226;DHT22;50545;56.064;26.178;2022-10-16T03:07:52;9.60;99.90
64226;DHT22;50545;56.064;26.178;2022-10-16T03:10:19;9.60;99.90
64226;DHT22;50545;56.064;26.178;2022-10-16T03:12:47;9.70;99.90
64226;DHT22;50545;56.064;26.178;2022-10-16T03:15:15;9.70;99.90
64226;DHT22;50545;56.064;26.178;2022-10-16T03:17:42;9.70;99.90
64226;DHT22;50545;56.064;26.178;2022-10-16T03:20:10;9.70;99.90
64226;DHT22;50545;56.064;26.178;2022-10-16T03:22:38;9.70;99.90
64226;DHT22;50545;56.064;26.178;2022-10-16T03:25:05;9.70;99.90
64226;DHT22;50545;56.064;26.178;2022-10-16T03:27:32;9.80;99.90
64226;DHT22;50545;56.064;26.178;2022-10-16T03:30:00;9.70;99.90
64226;DHT22;50545;56.064;26.178;2022-10-16T03:32:27;9.80;99.90
64226;DHT22;50545;56.064;26.178;2022-10-16T03:34:55;9.80;99.90
64226;DHT22;50545;56.064;26.178;2022-10-16T03:37:24;9.80;99.90
64226;DHT22;50545;56.064;26.178;2022-10-16T03:39:51;9.80;99.90
64226;DHT22;50545;56.064;26.178;2022-10-16T03:42:19;9.90;99.90
64226;DHT22;50545;56.064;26.178;2022-10-16T03:44:46;9.90;99.90
64226;DHT22;50545;56.064;26.178;2022-10-16T03:47:13;9.90;99.90
64226;DHT22;50545;56.064;26.178;2022-10-16T03:49:40;9.90;99.90
64226;DHT22;50545;56.064;26.178;2022-10-16T03:52:08;10.00;99.90
64226;DHT22;50545;56.064;26.178;2022-10-16T03:54:35;10.00;99.90
64226;DHT22;50545;56.064;26.178;2022-10-16T03:57:02;10.00;99.90
64226;DHT22;50545;56.064;26.178;2022-10-16T03:59:29;10.00;99.90
64226;DHT22;50545;56.064;26.178;2022-10-16T04:01:57;10.00;99.90
64226;DHT22;50545;56.064;26.178;2022-10-16T04:04:24;10.00;99.90
64226;DHT22;50545;56.064;26.178;2022-10-16T04:06:51;10.00;99.90
64226;DHT22;50545;56.064;26.178;2022-10-16T04:09:19;10.00;99.90
64226;DHT22;50545;56.064;26.178;2022-10-16T04:11:46;10.00;99.90
64226;DHT22;50545;56.064;26.178;2022-10-16T04:14:13;10.00;99.90
64226;DHT22;50545;56.064;26.178;2022-10-16T04:16:41;10.00;99.90
64226;DHT22;50545;56.064;26.178;2022-10-16T04:19:09;10.00;99.90
64226;DHT22;50545;56.064;26.178;2022-10-16T04:21:37;9.90;99.90
64226;DHT22;50545;56.064;26.178;2022-10-16T04:24:04;9.90;99.90
64226;DHT22;50545;56.064;26.178;2022-10-16T04:26:31;10.00;99.90
64226;DHT22;50545;56.064;26.178;2022-10-16T04:28:58;10.00;99.90
64226;DHT22;50545;56.064;26.178;2022-10-16T04:31:26;10.00;99.90
64226;DHT22;50545;56.064;26.178;2022-10-16T04:33:53;10.10;99.90
64226;DHT22;50545;56.064;26.178;2022-10-16T04:36:20;10.10;99.90
64226;DHT22;50545;56.064;26.178;2022-10-16T04:38:52;10.20;99.90
64226;DHT22;50545;56.064;26.178;2022-10-16T04:41:19;10.20;99.90
64226;DHT22;50545;56.064;26.178;2022-10-16T04:43:46;10.30;99.90
64226;DHT22;50545;56.064;26.178;2022-10-16T04:46:14;10.30;99.90
64226;DHT22;50545;56.064;26.178;2022-10-16T04:48:41;10.30;99.90
64226;DHT22;50545;56.064;26.178;2022-10-16T04:51:08;10.40;99.90
64226;DHT22;50545;56.064;26.178;2022-10-16T04:53:35;10.50;99.90
64226;DHT22;50545;56.064;26.178;2022-10-16T04:56:03;10.60;99.90
64226;DHT22;50545;56.064;26.178;2022-10-16T04:58:30;10.60;99.90
64226;DHT22;50545;56.064;26.178;2022-10-16T05:00:58;10.70;99.90
64226;DHT22;50545;56.064;26.178;2022-10-16T05:03:25;10.70;99.90
64226;DHT22;50545;56.064;26.178;2022-10-16T05:05:52;10.70;99.90
64226;DHT22;50545;56.064;26.178;2022-10-16T05:08:20;10.80;99.90
64226;DHT22;50545;56.064;26.178;2022-10-16T05:10:47;10.80;99.90
64226;DHT22;50545;56.064;26.178;2022-10-16T05:13:14;10.80;99.90
64226;DHT22;50545;56.064;26.178;2022-10-16T05:15:42;10.80;99.90
64226;DHT22;50545;56.064;26.178;2022-10-16T05:18:09;10.90;99.90
64226;DHT22;50545;56.064;26.178;2022-10-16T05:20:36;10.90;99.90
64226;DHT22;50545;56.064;26.178;2022-10-16T05:23:03;10.90;99.90
64226;DHT22;50545;56.064;26.178;2022-10-16T05:25:31;10.90;99.90
64226;DHT22;50545;56.064;26.178;2022-10-16T05:27:58;11.00;99.90
64226;DHT22;50545;56.064;26.178;2022-10-16T05:30:25;11.00;99.90
64226;DHT22;50545;56.064;26.178;2022-10-16T05:32:52;11.00;99.90
64226;DHT22;50545;56.064;26.178;2022-10-16T05:35:20;11.00;99.90
64226;DHT22;50545;56.064;26.178;2022-10-16T05:37:48;11.00;99.90
64226;DHT22;50545;56.064;26.178;2022-10-16T05:40:15;11.00;99.90
64226;DHT22;50545;56.064;26.178;2022-10-16T05:42:43;11.00;99.90
64226;DHT22;50545;56.064;26.178;2022-10-16T05:45:11;11.00;99.90
64226;DHT22;50545;56.064;26.178;2022-10-16T05:47:39;11.10;99.90
64226;DHT22;50545;56.064;26.178;2022-10-16T05:50:07;11.10;99.90
64226;DHT22;50545;56.064;26.178;2022-10-16T05:52:34;11.10;99.90
64226;DHT22;50545;56.064;26.178;2022-10-16T05:55:02;11.20;99.90
64226;DHT22;50545;56.064;26.178;2022-10-16T05:57:30;11.20;99.90
64226;DHT22;50545;56.064;26.178;2022-10-16T05:59:57;11.20;99.90
64226;DHT22;50545;56.064;26.178;2022-10-16T06:02:24;11.20;99.90
64226;DHT22;50545;56.064;26.178;2022-10-16T06:04:52;11.20;99.90
64226;DHT22;50545;56.064;26.178;2022-10-16T06:07:22;11.20;99.90
64226;DHT22;50545;56.064;26.178;2022-10-16T06:09:51;11.20;99.90
64226;DHT22;50545;56.064;26.178;2022-10-16T06:12:19;11.20;99.90
64226;DHT22;50545;56.064;26.178;2022-10-16T06:14:47;11.20;99.90
64226;DHT22;50545;56.064;26.178;2022-10-16T06:17:15;11.20;99.90
64226;DHT22;50545;56.064;26.178;2022-10-16T06:19:42;11.20;99.90
64226;DHT22;50545;56.064;26.178;2022-10-16T06:22:09;11.20;99.90
64226;DHT22;50545;56.064;26.178;2022-10-16T06:24:37;11.20;99.90
64226;DHT22;50545;56.064;26.178;2022-10-16T06:27:04;11.30;99.90
64226;DHT22;50545;56.064;26.178;2022-10-16T06:29:31;11.30;99.90
64226;DHT22;50545;56.064;26.178;2022-10-16T06:31:59;11.30;99.90
64226;DHT22;50545;56.064;26.178;2022-10-16T06:34:26;11.30;99.90
64226;DHT22;50545;56.064;26.178;2022-10-16T06:36:53;11.30;99.90
64226;DHT22;50545;56.064;26.178;2022-10-16T06:39:20;11.40;99.90
64226;DHT22;50545;56.064;26.178;2022-10-16T06:41:48;11.40;99.90
64226;DHT22;50545;56.064;26.178;2022-10-16T06:44:15;11.40;99.90
64226;DHT22;50545;56.064;26.178;2022-10-16T06:46:43;11.40;99.90
64226;DHT22;50545;56.064;26.178;2022-10-16T06:49:10;11.40;99.90
64226;DHT22;50545;56.064;26.178;2022-10-16T06:51:37;11.40;99.90
64226;DHT22;50545;56.064;26.178;2022-10-16T06:54:09;11.40;99.90
64226;DHT22;50545;56.064;26.178;2022-10-16T06:56:36;11.50;99.90
64226;DHT22;50545;56.064;26.178;2022-10-16T06:59:04;11.50;99.90
64226;DHT22;50545;56.064;26.178;2022-10-16T07:01:32;11.50;99.90
64226;DHT22;50545;56.064;26.178;2022-10-16T07:04:00;11.60;99.90
64226;DHT22;50545;56.064;26.178;2022-10-16T07:06:30;11.50;99.90
64226;DHT22;50545;56.064;26.178;2022-10-16T07:08:58;11.60;99.90
64226;DHT22;50545;56.064;26.178;2022-10-16T07:11:25;11.50;99.90
64226;DHT22;50545;56.064;26.178;2022-10-16T07:13:52;11.60;99.90
64226;DHT22;50545;56.064;26.178;2022-10-16T07:16:27;11.60;99.90
64226;DHT22;50545;56.064;26.178;2022-10-16T07:18:55;11.60;99.90
64226;DHT22;50545;56.064;26.178;2022-10-16T07:21:32;11.70;99.90
64226;DHT22;50545;56.064;26.178;2022-10-16T07:24:04;11.70;99.90
64226;DHT22;50545;56.064;26.178;2022-10-16T07:26:35;11.70;99.90
64226;DHT22;50545;56.064;26.178;2022-10-16T07:29:02;11.70;99.90
64226;DHT22;50545;56.064;26.178;2022-10-16T07:31:31;11.80;99.90
64226;DHT22;50545;56.064;26.178;2022-10-16T07:33:59;11.90;99.90
64226;DHT22;50545;56.064;26.178;2022-10-16T07:36:27;12.00;99.90
64226;DHT22;50545;56.064;26.178;2022-10-16T07:38:55;12.10;99.90
64226;DHT22;50545;56.064;26.178;2022-10-16T07:41:26;12.20;99.90
64226;DHT22;50545;56.064;26.178;2022-10-16T07:43:54;12.30;99.90
64226;DHT22;50545;56.064;26.178;2022-10-16T07:46:22;12.40;99.90
64226;DHT22;50545;56.064;26.178;2022-10-16T07:48:50;12.40;99.90
64226;DHT22;50545;56.064;26.178;2022-10-16T07:51:20;12.50;99.90
64226;DHT22;50545;56.064;26.178;2022-10-16T07:53:48;12.50;99.90
64226;DHT22;50545;56.064;26.178;2022-10-16T07:56:16;12.60;99.90
64226;DHT22;50545;56.064;26.178;2022-10-16T07:58:44;12.70;99.90
64226;DHT22;50545;56.064;26.178;2022-10-16T08:01:14;12.70;99.90
64226;DHT22;50545;56.064;26.178;2022-10-16T08:03:46;12.80;99.90
64226;DHT22;50545;56.064;26.178;2022-10-16T08:06:14;12.80;99.90
64226;DHT22;50545;56.064;26.178;2022-10-16T08:08:42;12.90;99.90
64226;DHT22;50545;56.064;26.178;2022-10-16T08:11:09;12.90;99.90
64226;DHT22;50545;56.064;26.178;2022-10-16T08:13:37;13.00;99.90
64226;DHT22;50545;56.064;26.178;2022-10-16T08:16:04;13.00;99.90
64226;DHT22;50545;56.064;26.178;2022-10-16T08:18:35;13.00;99.90
64226;DHT22;50545;56.064;26.178;2022-10-16T08:21:03;13.10;99.90
64226;DHT22;50545;56.064;26.178;2022-10-16T08:23:32;13.10;99.90
64226;DHT22;50545;56.064;26.178;2022-10-16T08:26:05;13.20;99.90
64226;DHT22;50545;56.064;26.178;2022-10-16T08:28:33;13.20;99.90
64226;DHT22;50545;56.064;26.178;2022-10-16T08:31:14;13.20;99.90
64226;DHT22;50545;56.064;26.178;2022-10-16T08:33:44;13.30;99.90
64226;DHT22;50545;56.064;26.178;2022-10-16T08:36:13;13.30;99.90
64226;DHT22;50545;56.064;26.178;2022-10-16T08:38:41;13.40;99.90
64226;DHT22;50545;56.064;26.178;2022-10-16T08:49:43;13.50;99.90
64226;DHT22;50545;56.064;26.178;2022-10-16T08:52:15;13.50;99.90
64226;DHT22;50545;56.064;26.178;2022-10-16T08:54:45;13.60;99.90
64226;DHT22;50545;56.064;26.178;2022-10-16T08:57:19;13.60;99.90
64226;DHT22;50545;56.064;26.178;2022-10-16T08:59:50;13.60;99.90
64226;DHT22;50545;56.064;26.178;2022-10-16T09:02:37;13.60;99.90
64226;DHT22;50545;56.064;26.178;2022-10-16T09:13:56;13.60;99.90
64226;DHT22;50545;56.064;26.178;2022-10-16T09:16:42;13.60;99.90
64226;DHT22;50545;56.064;26.178;2022-10-16T09:19:25;13.50;99.90
64226;DHT22;50545;56.064;26.178;2022-10-16T09:22:00;13.40;99.90
64226;DHT22;50545;56.064;26.178;2022-10-16T09:24:29;13.40;99.90
64226;DHT22;50545;56.064;26.178;2022-10-16T09:26:56;13.30;99.90
64226;DHT22;50545;56.064;26.178;2022-10-16T09:29:24;13.30;99.90
64226;DHT22;50545;56.064;26.178;2022-10-16T09:31:53;13.30;99.90
64226;DHT22;50545;56.064;26.178;2022-10-16T09:35:01;13.20;99.90
64226;DHT22;50545;56.064;26.178;2022-10-16T09:37:29;13.30;99.90
64226;DHT22;50545;56.064;26.178;2022-10-16T09:39:57;13.30;99.90
64226;DHT22;50545;56.064;26.178;2022-10-16T09:42:35;13.30;99.90
64226;DHT22;50545;56.064;26.178;2022-10-16T09:45:04;13.20;99.90
64226;DHT22;50545;56.064;26.178;2022-10-16T09:47:31;13.20;99.90
64226;DHT22;50545;56.064;26.178;2022-10-16T09:50:21;13.10;99.90
64226;DHT22;50545;56.064;26.178;2022-10-16T09:52:49;13.10;99.90
64226;DHT22;50545;56.064;26.178;2022-10-16T09:55:18;13.00;99.90
64226;DHT22;50545;56.064;26.178;2022-10-16T09:57:52;13.00;99.90
64226;DHT22;50545;56.064;26.178;2022-10-16T10:00:24;12.90;99.90
64226;DHT22;50545;56.064;26.178;2022-10-16T10:02:52;12.80;99.90
64226;DHT22;50545;56.064;26.178;2022-10-16T10:05:27;12.80;99.90
64226;DHT22;50545;56.064;26.178;2022-10-16T10:08:00;12.70;99.90
64226;DHT22;50545;56.064;26.178;2022-10-16T10:10:31;12.70;99.90
64226;DHT22;50545;56.064;26.178;2022-10-16T10:12:59;12.60;99.90
64226;DHT22;50545;56.064;26.178;2022-10-16T10:15:30;12.60;99.90
64226;DHT22;50545;56.064;26.178;2022-10-16T10:18:00;12.50;99.90
64226;DHT22;50545;56.064;26.178;2022-10-16T10:20:32;12.50;99.90
64226;DHT22;50545;56.064;26.178;2022-10-16T10:23:23;12.50;99.90
64226;DHT22;50545;56.064;26.178;2022-10-16T10:34:45;12.60;99.90
64226;DHT22;50545;56.064;26.178;2022-10-16T10:38:05;12.60;99.90
64226;DHT22;50545;56.064;26.178;2022-10-16T10:40:56;12.50;99.90
64226;DHT22;50545;56.064;26.178;2022-10-16T10:52:10;12.30;99.90
64226;DHT22;50545;56.064;26.178;2022-10-16T10:57:21;12.30;99.90
64226;DHT22;50545;56.064;26.178;2022-10-16T11:05:33;12.40;99.90
64226;DHT22;50545;56.064;26.178;2022-10-16T11:10:53;12.60;99.90
64226;DHT22;50545;56.064;26.178;2022-10-16T11:16:22;12.80;99.90
64226;DHT22;50545;56.064;26.178;2022-10-16T11:21:24;12.80;99.90
64226;DHT22;50545;56.064;26.178;2022-10-16T11:26:27;12.80;99.90
64226;DHT22;50545;56.064;26.178;2022-10-16T11:28:56;12.70;99.90
64226;DHT22;50545;56.064;26.178;2022-10-16T11:34:22;12.70;99.90
64226;DHT22;50545;56.064;26.178;2022-10-16T11:37:02;12.80;99.90
64226;DHT22;50545;56.064;26.178;2022-10-16T11:39:31;12.80;99.90
64226;DHT22;50545;56.064;26.178;2022-10-16T11:42:10;12.80;99.90
64226;DHT22;50545;56.064;26.178;2022-10-16T11:44:57;12.90;99.90
64226;DHT22;50545;56.064;26.178;2022-10-16T11:50:43;13.00;99.90
64226;DHT22;50545;56.064;26.178;2022-10-16T11:53:21;13.10;99.90
64226;DHT22;50545;56.064;26.178;2022-10-16T11:55:50;13.20;99.90
64226;DHT22;50545;56.064;26.178;2022-10-16T12:04:05;13.20;99.90
64226;DHT22;50545;56.064;26.178;2022-10-16T12:07:07;13.30;99.90
64226;DHT22;50545;56.064;26.178;2022-10-16T12:09:38;13.30;99.90
64226;DHT22;50545;56.064;26.178;2022-10-16T12:15:18;13.30;99.90
64226;DHT22;50545;56.064;26.178;2022-10-16T12:18:24;13.40;99.90
64226;DHT22;50545;56.064;26.178;2022-10-16T12:20:58;13.40;99.90
64226;DHT22;50545;56.064;26.178;2022-10-16T12:23:38;13.40;99.90
64226;DHT22;50545;56.064;26.178;2022-10-16T12:26:06;13.40;99.90
64226;DHT22;50545;56.064;26.178;2022-10-16T12:28:33;13.40;99.90
64226;DHT22;50545;56.064;26.178;2022-10-16T12:31:03;13.40;99.90
64226;DHT22;50545;56.064;26.178;2022-10-16T12:33:34;13.40;99.90
64226;DHT22;50545;56.064;26.178;2022-10-16T12:36:05;13.50;99.90
64226;DHT22;50545;56.064;26.178;2022-10-16T12:38:50;13.50;99.90
64226;DHT22;50545;56.064;26.178;2022-10-16T12:41:35;13.60;99.90
64226;DHT22;50545;56.064;26.178;2022-10-16T12:44:25;13.60;99.90
64226;DHT22;50545;56.064;26.178;2022-10-16T12:46:53;13.70;99.90
64226;DHT22;50545;56.064;26.178;2022-10-16T12:51:57;13.70;99.90
64226;DHT22;50545;56.064;26.178;2022-10-16T12:54:39;13.70;99.90
64226;DHT22;50545;56.064;26.178;2022-10-16T13:06:19;13.50;99.90
64226;DHT22;50545;56.064;26.178;2022-10-16T13:20:10;13.60;99.90
64226;DHT22;50545;56.064;26.178;2022-10-16T13:22:59;13.50;99.90
64226;DHT22;50545;56.064;26.178;2022-10-16T13:28:17;13.50;99.90
64226;DHT22;50545;56.064;26.178;2022-10-16T13:30:52;13.50;99.90
64226;DHT22;50545;56.064;26.178;2022-10-16T13:33:33;13.50;99.90
64226;DHT22;50545;56.064;26.178;2022-10-16T13:36:03;13.50;99.90
64226;DHT22;50545;56.064;26.178;2022-10-16T13:38:32;13.50;99.90
64226;DHT22;50545;56.064;26.178;2022-10-16T13:41:01;13.40;99.90
64226;DHT22;50545;56.064;26.178;2022-10-16T13:43:33;13.40;99.90
64226;DHT22;50545;56.064;26.178;2022-10-16T13:46:06;13.40;99.90
64226;DHT22;50545;56.064;26.178;2022-10-16T13:48:34;13.30;99.90
64226;DHT22;50545;56.064;26.178;2022-10-16T13:53:31;13.30;99.90
64226;DHT22;50545;56.064;26.178;2022-10-16T13:55:59;13.30;99.90
64226;DHT22;50545;56.064;26.178;2022-10-16T13:58:27;13.20;99.90
64226;DHT22;50545;56.064;26.178;2022-10-16T14:01:02;13.20;99.90
64226;DHT22;50545;56.064;26.178;2022-10-16T14:03:30;13.10;99.90
64226;DHT22;50545;56.064;26.178;2022-10-16T14:06:02;13.10;99.90
64226;DHT22;50545;56.064;26.178;2022-10-16T14:08:30;13.10;99.90
64226;DHT22;50545;56.064;26.178;2022-10-16T14:11:00;13.10;99.90
64226;DHT22;50545;56.064;26.178;2022-10-16T14:13:31;13.00;99.90
64226;DHT22;50545;56.064;26.178;2022-10-16T14:16:06;13.10;99.90
64226;DHT22;50545;56.064;26.178;2022-10-16T14:18:34;13.10;99.90
64226;DHT22;50545;56.064;26.178;2022-10-16T14:21:06;13.10;99.90
64226;DHT22;50545;56.064;26.178;2022-10-16T14:23:38;13.10;99.90
64226;DHT22;50545;56.064;26.178;2022-10-16T14:28:37;13.10;99.90
64226;DHT22;50545;56.064;26.178;2022-10-16T14:33:46;13.20;99.90
64226;DHT22;50545;56.064;26.178;2022-10-16T14:36:15;13.20;99.90
64226;DHT22;50545;56.064;26.178;2022-10-16T14:39:05;13.30;99.90
64226;DHT22;50545;56.064;26.178;2022-10-16T14:41:46;13.30;99.90
64226;DHT22;50545;56.064;26.178;2022-10-16T14:44:16;13.30;99.90
64226;DHT22;50545;56.064;26.178;2022-10-16T14:46:44;13.30;99.90
64226;DHT22;50545;56.064;26.178;2022-10-16T14:51:40;13.20;99.90
64226;DHT22;50545;56.064;26.178;2022-10-16T14:54:17;13.20;99.90
64226;DHT22;50545;56.064;26.178;2022-10-16T15:01:59;13.20;99.90
64226;DHT22;50545;56.064;26.178;2022-10-16T15:04:27;13.10;99.90
64226;DHT22;50545;56.064;26.178;2022-10-16T15:06:54;13.20;99.90
64226;DHT22;50545;56.064;26.178;2022-10-16T15:09:22;13.10;99.90
64226;DHT22;50545;56.064;26.178;2022-10-16T15:11:49;13.10;99.90
64226;DHT22;50545;56.064;26.178;2022-10-16T15:14:16;13.10;99.90
64226;DHT22;50545;56.064;26.178;2022-10-16T15:16:43;13.10;99.90
64226;DHT22;50545;56.064;26.178;2022-10-16T15:19:10;13.10;99.90
64226;DHT22;50545;56.064;26.178;2022-10-16T15:21:38;13.10;99.90
64226;DHT22;50545;56.064;26.178;2022-10-16T15:24:09;13.10;99.90
64226;DHT22;50545;56.064;26.178;2022-10-16T15:26:43;13.10;99.90
64226;DHT22;50545;56.064;26.178;2022-10-16T15:29:13;13.00;99.90
64226;DHT22;50545;56.064;26.178;2022-10-16T15:31:40;13.00;99.90
64226;DHT22;50545;56.064;26.178;2022-10-16T15:34:10;13.00;99.90
64226;DHT22;50545;56.064;26.178;2022-10-16T15:36:39;13.00;99.90
64226;DHT22;50545;56.064;26.178;2022-10-16T15:39:15;12.90;99.90
64226;DHT22;50545;56.064;26.178;2022-10-16T15:41:45;12.90;99.90
64226;DHT22;50545;56.064;26.178;2022-10-16T15:44:14;12.90;99.90
64226;DHT22;50545;56.064;26.178;2022-10-16T15:46:42;12.90;99.90
64226;DHT22;50545;56.064;26.178;2022-10-16T15:49:10;12.80;99.90
64226;DHT22;50545;56.064;26.178;2022-10-16T15:51:39;12.80;99.90
64226;DHT22;50545;56.064;26.178;2022-10-16T15:54:07;12.70;99.90
64226;DHT22;50545;56.064;26.178;2022-10-16T15:56:35;12.70;99.90
64226;DHT22;50545;56.064;26.178;2022-10-16T15:59:04;12.70;99.90
64226;DHT22;50545;56.064;26.178;2022-10-16T16:01:35;12.70;99.90
64226;DHT22;50545;56.064;26.178;2022-10-16T16:04:03;12.70;99.90
64226;DHT22;50545;56.064;26.178;2022-10-16T16:06:41;12.60;99.90
64226;DHT22;50545;56.064;26.178;2022-10-16T16:09:12;12.60;99.90
64226;DHT22;50545;56.064;26.178;2022-10-16T16:11:41;12.70;99.90
64226;DHT22;50545;56.064;26.178;2022-10-16T16:14:12;12.70;99.90
64226;DHT22;50545;56.064;26.178;2022-10-16T16:16:39;12.80;99.90
64226;DHT22;50545;56.064;26.178;2022-10-16T16:19:08;12.80;99.90
64226;DHT22;50545;56.064;26.178;2022-10-16T16:21:38;12.80;99.90
64226;DHT22;50545;56.064;26.178;2022-10-16T16:24:05;12.80;99.90
64226;DHT22;50545;56.064;26.178;2022-10-16T16:26:36;12.80;99.90
64226;DHT22;50545;56.064;26.178;2022-10-16T16:29:07;12.80;99.90
64226;DHT22;50545;56.064;26.178;2022-10-16T16:31:34;12.80;99.90
64226;DHT22;50545;56.064;26.178;2022-10-16T16:34:02;12.70;99.90
64226;DHT22;50545;56.064;26.178;2022-10-16T16:36:30;12.70;99.90
64226;DHT22;50545;56.064;26.178;2022-10-16T16:38:57;12.70;99.90
64226;DHT22;50545;56.064;26.178;2022-10-16T16:41:26;12.70;99.90
64226;DHT22;50545;56.064;26.178;2022-10-16T16:43:54;12.70;99.90
64226;DHT22;50545;56.064;26.178;2022-10-16T16:46:22;12.70;99.90
64226;DHT22;50545;56.064;26.178;2022-10-16T16:48:49;12.70;99.90
64226;DHT22;50545;56.064;26.178;2022-10-16T16:51:18;12.60;99.90
64226;DHT22;50545;56.064;26.178;2022-10-16T16:53:49;12.60;99.90
64226;DHT22;50545;56.064;26.178;2022-10-16T16:56:18;12.50;99.90
64226;DHT22;50545;56.064;26.178;2022-10-16T16:58:46;12.40;99.90
64226;DHT22;50545;56.064;26.178;2022-10-16T17:01:14;12.40;99.90
64226;DHT22;50545;56.064;26.178;2022-10-16T17:03:47;12.30;99.90
64226;DHT22;50545;56.064;26.178;2022-10-16T17:06:21;12.30;99.90
64226;DHT22;50545;56.064;26.178;2022-10-16T17:08:49;12.30;99.90
64226;DHT22;50545;56.064;26.178;2022-10-16T17:11:20;12.30;99.90
64226;DHT22;50545;56.064;26.178;2022-10-16T17:13:49;12.30;99.90
64226;DHT22;50545;56.064;26.178;2022-10-16T17:16:23;12.30;99.90
64226;DHT22;50545;56.064;26.178;2022-10-16T17:18:51;12.30;99.90
64226;DHT22;50545;56.064;26.178;2022-10-16T17:21:19;12.30;99.90
64226;DHT22;50545;56.064;26.178;2022-10-16T17:23:50;12.30;99.90
64226;DHT22;50545;56.064;26.178;2022-10-16T17:26:18;12.30;99.90
64226;DHT22;50545;56.064;26.178;2022-10-16T17:28:45;12.20;99.90
64226;DHT22;50545;56.064;26.178;2022-10-16T17:31:16;12.20;99.90
64226;DHT22;50545;56.064;26.178;2022-10-16T17:33:44;12.20;99.90
64226;DHT22;50545;56.064;26.178;2022-10-16T17:36:12;12.20;99.90
64226;DHT22;50545;56.064;26.178;2022-10-16T17:38:41;12.20;99.90
64226;DHT22;50545;56.064;26.178;2022-10-16T17:41:23;12.20;99.90
64226;DHT22;50545;56.064;26.178;2022-10-16T17:43:51;12.20;99.90
64226;DHT22;50545;56.064;26.178;2022-10-16T17:46:20;12.20;99.90